MXY9455 KPWM-KPVD
Flight info
| Callsign | MXY9455 |
|---|---|
| Flight time | N/A |
| Altitude | 16000 |
| Route | NUBLE4 JJIMY |
| Aircraft | E190/M-SDE3GILORVW/S |
Departure
| Time | 2026-05-07 19:16 |
|---|---|
| Airport | Portland International Jetport (KPWM) |
Arrival
| Time | N/A |
|---|---|
| Airport | Rhode Island T. F. Green International Airport (KPVD) |
| Time | Latitude | Longitude | Altitude | Speed | Heading |
|---|---|---|---|---|---|
| 2026-05-07 18:57 | 43.64677 | -70.31019 | 60 ft | 0 kts | 3° |
| 2026-05-07 19:07 | 43.64671 | -70.31018 | 54 ft | 2 kts | 15° |
| 2026-05-07 19:08 | 43.64661 | -70.31022 | 52 ft | 3 kts | 9° |
| 2026-05-07 19:08 | 43.64641 | -70.31026 | 55 ft | 3 kts | 9° |
| 2026-05-07 19:08 | 43.64621 | -70.31031 | 58 ft | 3 kts | 13° |
| 2026-05-07 19:08 | 43.64602 | -70.31038 | 59 ft | 3 kts | 26° |
| 2026-05-07 19:09 | 43.64587 | -70.31052 | 55 ft | 2 kts | 62° |
| 2026-05-07 19:09 | 43.64584 | -70.31059 | 58 ft | 2 kts | 74° |
| 2026-05-07 19:11 | 43.64584 | -70.31057 | 58 ft | 1 kts | 74° |
| 2026-05-07 19:11 | 43.64584 | -70.31055 | 58 ft | 0 kts | 74° |
| 2026-05-07 19:12 | 43.64586 | -70.31046 | 55 ft | 2 kts | 76° |
| 2026-05-07 19:12 | 43.64589 | -70.31007 | 57 ft | 6 kts | 87° |
| 2026-05-07 19:12 | 43.64586 | -70.30938 | 56 ft | 9 kts | 95° |
| 2026-05-07 19:12 | 43.64579 | -70.30840 | 56 ft | 12 kts | 95° |
| 2026-05-07 19:13 | 43.64570 | -70.30712 | 57 ft | 14 kts | 96° |
| 2026-05-07 19:13 | 43.64561 | -70.30572 | 57 ft | 15 kts | 98° |
| 2026-05-07 19:13 | 43.64550 | -70.30425 | 53 ft | 16 kts | 94° |
| 2026-05-07 19:13 | 43.64539 | -70.30254 | 53 ft | 19 kts | 96° |
| 2026-05-07 19:14 | 43.64526 | -70.30068 | 53 ft | 20 kts | 96° |
| 2026-05-07 19:14 | 43.64508 | -70.29939 | 49 ft | 10 kts | 122° |
| 2026-05-07 19:14 | 43.64502 | -70.29930 | 50 ft | 0 kts | 135° |
| 2026-05-07 19:15 | 43.64497 | -70.29926 | 50 ft | 3 kts | 142° |
| 2026-05-07 19:15 | 43.64459 | -70.29912 | 49 ft | 10 kts | 173° |
| 2026-05-07 19:15 | 43.64407 | -70.29968 | 48 ft | 11 kts | 271° |
| 2026-05-07 19:15 | 43.64419 | -70.30134 | 50 ft | 43 kts | 276° |
| 2026-05-07 19:16 | 43.64471 | -70.30903 | 59 ft | 116 kts | 275° |
| 2026-05-07 19:16 | 43.64575 | -70.32225 | 413 ft | 151 kts | 277° |
| 2026-05-07 19:16 | 43.64716 | -70.33826 | 966 ft | 192 kts | 277° |
| 2026-05-07 19:16 | 43.64883 | -70.35929 | 1146 ft | 247 kts | 276° |
| 2026-05-07 19:17 | 43.64996 | -70.38429 | 1255 ft | 260 kts | 272° |
| 2026-05-07 19:17 | 43.65026 | -70.40932 | 1418 ft | 260 kts | 272° |
| 2026-05-07 19:17 | 43.65078 | -70.43426 | 2010 ft | 251 kts | 272° |
| 2026-05-07 19:17 | 43.65152 | -70.45802 | 2109 ft | 239 kts | 274° |
| 2026-05-07 19:18 | 43.65181 | -70.48057 | 2012 ft | 243 kts | 265° |
| 2026-05-07 19:18 | 43.64398 | -70.50078 | 2908 ft | 240 kts | 224° |
| 2026-05-07 19:18 | 43.62865 | -70.50905 | 3925 ft | 242 kts | 190° |
| 2026-05-07 19:18 | 43.61221 | -70.50924 | 4762 ft | 233 kts | 188° |
| 2026-05-07 19:19 | 43.59689 | -70.51414 | 5364 ft | 223 kts | 212° |
| 2026-05-07 19:19 | 43.58340 | -70.52441 | 5940 ft | 222 kts | 215° |
| 2026-05-07 19:19 | 43.56985 | -70.53470 | 6455 ft | 225 kts | 216° |
| 2026-05-07 19:19 | 43.55608 | -70.54559 | 6804 ft | 241 kts | 216° |
| 2026-05-07 19:20 | 43.54122 | -70.55764 | 7232 ft | 252 kts | 217° |
| 2026-05-07 19:20 | 43.52578 | -70.56981 | 7781 ft | 262 kts | 211° |
| 2026-05-07 19:20 | 43.50818 | -70.57809 | 8393 ft | 269 kts | 202° |
| 2026-05-07 19:20 | 43.49000 | -70.58504 | 9077 ft | 272 kts | 204° |
| 2026-05-07 19:21 | 43.47169 | -70.59238 | 9794 ft | 274 kts | 204° |
| 2026-05-07 19:21 | 43.45336 | -70.59980 | 10366 ft | 282 kts | 205° |
| 2026-05-07 19:21 | 43.43412 | -70.60765 | 10797 ft | 295 kts | 204° |
| 2026-05-07 19:21 | 43.41408 | -70.61579 | 11265 ft | 306 kts | 204° |
| 2026-05-07 19:22 | 43.39341 | -70.62421 | 11846 ft | 313 kts | 204° |
| 2026-05-07 19:22 | 43.37244 | -70.63271 | 12639 ft | 315 kts | 204° |
| 2026-05-07 19:22 | 43.35146 | -70.64124 | 13565 ft | 314 kts | 204° |
| 2026-05-07 19:22 | 43.33053 | -70.64975 | 14416 ft | 314 kts | 205° |
| 2026-05-07 19:23 | 43.30996 | -70.65810 | 15254 ft | 314 kts | 205° |
| 2026-05-07 19:23 | 43.28892 | -70.66667 | 15924 ft | 320 kts | 205° |
| 2026-05-07 19:23 | 43.26773 | -70.67521 | 16020 ft | 310 kts | 204° |
| 2026-05-07 19:23 | 43.24762 | -70.68324 | 16017 ft | 293 kts | 205° |
| 2026-05-07 19:24 | 43.22852 | -70.69092 | 16030 ft | 280 kts | 205° |
| 2026-05-07 19:24 | 43.21001 | -70.69847 | 16018 ft | 285 kts | 206° |
| 2026-05-07 19:24 | 43.19038 | -70.70653 | 16037 ft | 301 kts | 205° |
| 2026-05-07 19:24 | 43.17000 | -70.71477 | 16081 ft | 310 kts | 205° |
| 2026-05-07 19:25 | 43.16699 | -70.71600 | 16088 ft | 311 kts | 205° |
| 2026-05-07 19:25 | 43.15787 | -70.71999 | 16090 ft | 312 kts | 208° |
| 2026-05-07 19:25 | 43.14661 | -70.72758 | 16093 ft | 309 kts | 217° |
| 2026-05-07 19:25 | 43.14360 | -70.73004 | 16097 ft | 309 kts | 217° |
| 2026-05-07 19:26 | 43.14199 | -70.73136 | 16098 ft | 310 kts | 217° |
| 2026-05-07 19:26 | 43.12297 | -70.74609 | 16094 ft | 316 kts | 214° |
| 2026-05-07 19:26 | 43.10348 | -70.76022 | 16030 ft | 318 kts | 214° |
| 2026-05-07 19:26 | 43.08421 | -70.77420 | 16004 ft | 318 kts | 214° |
| 2026-05-07 19:27 | 43.06658 | -70.78690 | 16009 ft | 319 kts | 214° |
| 2026-05-07 19:27 | 43.06655 | -70.78692 | 16010 ft | 319 kts | 214° |